createdAt,value
2023-05-03T00:00:21.028Z,20.86
2023-05-03T00:02:47.452Z,20.85
2023-05-03T00:05:14.954Z,20.85
2023-05-03T00:07:42.208Z,20.84
2023-05-03T00:10:09.301Z,20.84
2023-05-03T00:12:35.872Z,20.84
2023-05-03T00:15:02.219Z,20.83
2023-05-03T00:17:28.609Z,20.83
2023-05-03T00:19:56.426Z,20.82
2023-05-03T00:22:22.954Z,20.82
2023-05-03T00:24:50.991Z,20.81
2023-05-03T00:27:17.573Z,20.81
2023-05-03T00:29:43.923Z,20.80
2023-05-03T00:32:10.996Z,20.81
2023-05-03T00:34:37.706Z,20.80
2023-05-03T00:37:04.050Z,20.80
2023-05-03T00:39:31.514Z,20.78
2023-05-03T00:41:58.527Z,20.79
2023-05-03T00:44:25.225Z,20.77
2023-05-03T00:46:51.805Z,20.76
2023-05-03T00:49:18.460Z,20.77
2023-05-03T00:51:44.834Z,20.76
2023-05-03T00:54:11.245Z,20.76
2023-05-03T00:56:47.816Z,20.75
2023-05-03T00:59:17.810Z,20.75
2023-05-03T01:01:45.707Z,20.75
2023-05-03T01:04:12.365Z,20.74
2023-05-03T01:06:38.776Z,20.73
2023-05-03T01:09:22.448Z,20.74
2023-05-03T01:12:08.500Z,20.71
2023-05-03T01:14:53.593Z,20.72
2023-05-03T01:17:20.045Z,20.70
2023-05-03T01:19:50.145Z,20.71
2023-05-03T01:22:35.130Z,20.70
2023-05-03T01:25:07.970Z,20.70
2023-05-03T01:27:34.418Z,20.69
2023-05-03T01:30:01.067Z,20.68
2023-05-03T01:32:30.937Z,20.68
2023-05-03T01:35:20.581Z,20.67
2023-05-03T01:37:47.525Z,20.67
2023-05-03T01:40:16.851Z,20.66
2023-05-03T01:42:43.240Z,20.66
2023-05-03T01:45:09.847Z,20.66
2023-05-03T01:47:36.226Z,20.65
2023-05-03T01:50:02.858Z,20.64
2023-05-03T01:52:30.263Z,20.65
2023-05-03T01:54:56.977Z,20.66
2023-05-03T01:57:23.363Z,20.65
2023-05-03T01:59:49.750Z,20.65
2023-05-03T02:02:16.125Z,20.65
2023-05-03T02:04:42.851Z,20.63
2023-05-03T02:07:09.431Z,20.63
2023-05-03T02:09:35.826Z,20.63
2023-05-03T02:12:02.197Z,20.62
2023-05-03T02:14:28.744Z,20.62
2023-05-03T02:16:55.845Z,20.60
2023-05-03T02:19:22.398Z,20.59
2023-05-03T02:21:48.926Z,20.58
2023-05-03T02:24:16.343Z,20.58
2023-05-03T02:26:42.678Z,20.58
2023-05-03T02:29:09.961Z,20.56
2023-05-03T02:31:36.330Z,20.57
2023-05-03T02:34:03.554Z,20.56
2023-05-03T02:36:29.988Z,20.55
2023-05-03T02:38:57.109Z,20.55
2023-05-03T02:41:23.497Z,20.55
2023-05-03T02:43:50.786Z,20.55
2023-05-03T02:46:17.863Z,20.54
2023-05-03T02:48:44.222Z,20.55
2023-05-03T02:51:11.243Z,20.57
2023-05-03T02:53:37.698Z,20.59
2023-05-03T02:56:04.217Z,20.60
2023-05-03T02:58:31.002Z,20.61
2023-05-03T03:00:58.741Z,20.63
2023-05-03T03:03:28.784Z,20.64
2023-05-03T03:05:55.332Z,20.64
2023-05-03T03:08:22.673Z,20.64
2023-05-03T03:10:49.589Z,20.63
2023-05-03T03:13:16.546Z,20.65
2023-05-03T03:15:42.925Z,20.63
2023-05-03T03:18:09.389Z,20.65
2023-05-03T03:20:35.981Z,20.66
2023-05-03T03:23:02.849Z,20.66
2023-05-03T03:25:29.236Z,20.69
2023-05-03T03:27:57.255Z,20.70
2023-05-03T03:30:24.778Z,20.70
2023-05-03T03:33:03.396Z,20.70
2023-05-03T03:35:36.791Z,20.70
2023-05-03T03:38:04.242Z,20.71
2023-05-03T03:40:31.050Z,20.70
2023-05-03T03:42:57.608Z,20.69
2023-05-03T03:45:24.970Z,20.70
2023-05-03T03:47:53.698Z,20.71
2023-05-03T03:50:21.866Z,20.71
2023-05-03T03:52:48.377Z,20.73
2023-05-03T03:55:15.687Z,20.75
2023-05-03T03:57:42.790Z,20.75
2023-05-03T04:00:10.415Z,20.75
2023-05-03T04:02:39.096Z,20.74
2023-05-03T04:05:10.040Z,20.73
2023-05-03T04:07:36.802Z,20.73
2023-05-03T04:10:03.597Z,20.74
2023-05-03T04:12:30.603Z,20.72
2023-05-03T04:14:57.211Z,20.73
2023-05-03T04:17:23.957Z,20.74
2023-05-03T04:19:51.314Z,20.75
2023-05-03T04:22:18.114Z,20.76
2023-05-03T04:24:45.851Z,20.77
2023-05-03T04:27:14.608Z,20.77
2023-05-03T04:29:41.899Z,20.76
2023-05-03T04:32:08.314Z,20.78
2023-05-03T04:34:35.987Z,20.77
2023-05-03T04:37:05.053Z,20.77
2023-05-03T04:39:32.185Z,20.76
2023-05-03T04:41:58.569Z,20.77
2023-05-03T04:44:26.086Z,20.76
2023-05-03T04:46:53.497Z,20.78
2023-05-03T04:49:19.972Z,20.78
2023-05-03T04:51:46.326Z,20.79
2023-05-03T04:54:13.224Z,20.79
2023-05-03T04:56:39.811Z,20.79
2023-05-03T04:59:12.787Z,20.81
2023-05-03T05:01:39.788Z,20.80
2023-05-03T05:04:07.563Z,19.88
2023-05-03T05:06:40.148Z,20.07
2023-05-03T05:09:07.980Z,20.30
2023-05-03T05:11:34.646Z,20.27
2023-05-03T05:14:01.033Z,20.40
2023-05-03T05:16:27.455Z,20.54
2023-05-03T05:18:53.916Z,20.63
2023-05-03T05:21:23.822Z,20.69
2023-05-03T05:23:50.195Z,20.73
2023-05-03T05:26:16.761Z,20.77
2023-05-03T05:28:43.239Z,20.80
2023-05-03T05:31:09.626Z,20.80
2023-05-03T05:33:36.582Z,20.81
2023-05-03T05:36:04.244Z,20.80
2023-05-03T05:38:32.981Z,20.80
2023-05-03T05:41:00.035Z,20.80
2023-05-03T05:43:26.404Z,20.81
2023-05-03T05:45:53.855Z,20.82
2023-05-03T05:48:20.846Z,20.82
2023-05-03T05:50:48.753Z,20.84
2023-05-03T05:53:15.289Z,20.85
2023-05-03T05:55:48.606Z,20.86
2023-05-03T05:58:15.025Z,20.88
2023-05-03T06:00:50.174Z,20.89
2023-05-03T06:03:17.596Z,20.89
2023-05-03T06:05:45.574Z,20.89
2023-05-03T06:08:12.748Z,20.90
2023-05-03T06:10:39.975Z,20.89
2023-05-03T06:13:06.357Z,20.82
2023-05-03T06:15:33.792Z,20.51
2023-05-03T06:18:00.346Z,20.43
2023-05-03T06:20:26.876Z,20.26
2023-05-03T06:22:54.139Z,20.24
2023-05-03T06:25:20.746Z,20.47
2023-05-03T06:27:49.082Z,20.18
2023-05-03T06:30:17.195Z,19.67
2023-05-03T06:32:46.627Z,19.49
2023-05-03T06:35:13.720Z,19.54
2023-05-03T06:37:40.566Z,19.32
2023-05-03T06:40:07.263Z,19.25
2023-05-03T06:42:33.619Z,19.12
2023-05-03T06:45:16.357Z,19.34
2023-05-03T06:47:43.150Z,19.39
2023-05-03T06:50:09.949Z,19.32
2023-05-03T06:52:36.459Z,19.21
2023-05-03T06:55:02.972Z,19.25
2023-05-03T06:57:29.344Z,19.75
2023-05-03T06:59:55.685Z,20.05
2023-05-03T07:02:22.804Z,20.20
2023-05-03T07:04:49.388Z,20.30
2023-05-03T07:07:15.897Z,20.38
2023-05-03T07:09:43.652Z,20.40
2023-05-03T07:12:10.472Z,20.43
2023-05-03T07:14:36.881Z,20.45
2023-05-03T07:17:03.269Z,20.44
2023-05-03T07:19:30.184Z,20.48
2023-05-03T07:21:56.590Z,20.51
2023-05-03T07:24:24.831Z,20.54
2023-05-03T07:26:51.230Z,20.55
2023-05-03T07:29:17.561Z,20.55
2023-05-03T07:31:44.846Z,20.56
2023-05-03T07:34:11.294Z,20.58
2023-05-03T07:36:37.977Z,20.57
2023-05-03T07:39:04.923Z,20.59
2023-05-03T07:41:31.723Z,20.60
2023-05-03T07:43:58.094Z,20.61
2023-05-03T07:46:24.602Z,20.62
2023-05-03T07:48:51.027Z,20.60
2023-05-03T07:51:17.347Z,20.63
2023-05-03T07:53:44.145Z,20.64
2023-05-03T07:56:11.012Z,20.63
2023-05-03T07:58:40.473Z,20.63
2023-05-03T08:01:07.357Z,20.65
2023-05-03T08:03:33.946Z,20.68
2023-05-03T08:06:00.796Z,20.66
2023-05-03T08:08:27.815Z,20.68
2023-05-03T08:10:54.307Z,20.67
2023-05-03T08:13:22.520Z,20.71
2023-05-03T08:15:49.367Z,20.73
2023-05-03T08:18:15.935Z,20.73
2023-05-03T08:20:42.400Z,20.74
2023-05-03T08:23:08.743Z,20.73
2023-05-03T08:25:37.096Z,20.75
2023-05-03T08:28:03.599Z,20.74
2023-05-03T08:30:30.357Z,20.74
2023-05-03T08:32:56.778Z,20.76
2023-05-03T08:35:23.134Z,20.78
2023-05-03T08:37:49.493Z,20.80
2023-05-03T08:40:16.634Z,20.78
2023-05-03T08:42:43.423Z,20.78
2023-05-03T08:45:09.996Z,20.79
2023-05-03T08:47:38.483Z,20.77
2023-05-03T08:50:05.378Z,20.81
2023-05-03T08:52:32.100Z,20.81
2023-05-03T08:54:58.474Z,20.78
2023-05-03T08:57:25.346Z,20.80
2023-05-03T08:59:54.189Z,20.77
2023-05-03T09:02:21.335Z,20.78
2023-05-03T09:04:47.710Z,20.79
2023-05-03T09:07:15.995Z,20.79
2023-05-03T09:09:45.553Z,20.79
2023-05-03T09:12:13.354Z,20.80
2023-05-03T09:14:43.744Z,20.78
2023-05-03T09:17:16.868Z,20.80
2023-05-03T09:19:49.586Z,20.77
2023-05-03T09:22:16.188Z,20.80
2023-05-03T09:24:48.377Z,20.80
2023-05-03T09:27:17.918Z,20.79
2023-05-03T09:29:44.254Z,20.80
2023-05-03T09:32:10.931Z,20.80
2023-05-03T09:34:37.598Z,20.82
2023-05-03T09:37:03.969Z,20.82
2023-05-03T09:39:30.457Z,20.84
2023-05-03T09:41:56.849Z,20.84
2023-05-03T09:44:39.800Z,20.84
2023-05-03T09:47:06.189Z,20.85
2023-05-03T09:49:33.043Z,20.83
2023-05-03T09:51:59.933Z,20.85
2023-05-03T09:54:26.319Z,20.85
2023-05-03T09:56:55.681Z,20.86
2023-05-03T09:59:22.050Z,20.85
2023-05-03T10:01:48.596Z,20.85
2023-05-03T10:04:19.682Z,20.87
2023-05-03T10:06:47.146Z,20.77
2023-05-03T10:09:24.295Z,20.37
2023-05-03T10:11:51.865Z,20.44
2023-05-03T10:14:18.541Z,19.77
2023-05-03T10:16:45.729Z,19.84
2023-05-03T10:19:16.230Z,19.60
2023-05-03T10:21:48.872Z,20.00
2023-05-03T10:24:16.049Z,20.40
2023-05-03T10:26:42.989Z,20.57
2023-05-03T10:29:27.858Z,20.59
2023-05-03T10:31:54.286Z,20.62
2023-05-03T10:34:21.224Z,20.63
2023-05-03T10:36:50.431Z,20.64
2023-05-03T10:39:18.265Z,20.65
2023-05-03T10:41:44.821Z,20.70
2023-05-03T10:44:27.222Z,20.71
2023-05-03T10:46:53.741Z,20.75
2023-05-03T10:49:20.758Z,20.67
2023-05-03T10:51:47.187Z,19.83
2023-05-03T10:54:13.529Z,19.59
2023-05-03T10:56:52.816Z,19.49
2023-05-03T10:59:19.276Z,19.99
2023-05-03T11:01:46.953Z,20.24
2023-05-03T11:04:15.045Z,20.38
2023-05-03T11:06:41.647Z,20.44
2023-05-03T11:09:08.926Z,20.49
2023-05-03T11:11:36.681Z,20.47
2023-05-03T11:14:03.729Z,20.47
2023-05-03T11:16:30.965Z,20.50
2023-05-03T11:18:57.601Z,20.59
2023-05-03T11:21:23.979Z,20.44
2023-05-03T11:23:50.435Z,20.47
2023-05-03T11:26:16.832Z,20.44
2023-05-03T11:28:43.340Z,20.49
2023-05-03T11:31:09.939Z,20.53
2023-05-03T11:33:36.743Z,20.55
2023-05-03T11:36:09.781Z,20.53
2023-05-03T11:38:37.373Z,20.57
2023-05-03T11:41:16.939Z,20.27
2023-05-03T11:43:47.070Z,20.14
2023-05-03T11:46:14.154Z,20.35
2023-05-03T11:48:40.762Z,20.46
2023-05-03T11:51:07.688Z,20.55
2023-05-03T11:53:34.188Z,20.50
2023-05-03T11:56:03.199Z,20.57
2023-05-03T11:58:29.561Z,20.60
2023-05-03T12:00:56.286Z,20.65
2023-05-03T12:03:26.853Z,20.70
2023-05-03T12:05:57.339Z,20.78
2023-05-03T12:08:29.550Z,20.79
2023-05-03T12:10:58.641Z,20.74
2023-05-03T12:13:33.528Z,20.80
2023-05-03T12:19:05.509Z,20.87
2023-05-03T12:21:53.234Z,20.90
2023-05-03T12:24:28.717Z,20.91
2023-05-03T12:26:57.364Z,20.88
2023-05-03T12:29:24.701Z,20.85
2023-05-03T12:31:51.792Z,20.85
2023-05-03T12:36:49.073Z,20.86
2023-05-03T12:39:16.488Z,20.86
2023-05-03T12:42:06.412Z,20.84
2023-05-03T12:44:29.576Z,20.85
2023-05-03T12:46:56.180Z,20.88
2023-05-03T12:49:24.329Z,20.87
2023-05-03T12:52:02.829Z,20.86
2023-05-03T12:54:41.512Z,20.86
2023-05-03T12:57:14.612Z,20.86
2023-05-03T12:59:43.121Z,20.88
2023-05-03T13:07:13.686Z,20.89
2023-05-03T13:12:27.188Z,20.91
2023-05-03T13:14:53.612Z,20.93
2023-05-03T13:17:23.539Z,20.93
2023-05-03T13:19:50.910Z,20.93
2023-05-03T13:22:17.273Z,20.92
2023-05-03T13:24:44.146Z,20.97
2023-05-03T13:27:11.425Z,20.96
2023-05-03T13:29:38.066Z,20.96
2023-05-03T13:32:04.548Z,20.97
2023-05-03T13:34:30.919Z,20.96
2023-05-03T13:36:57.269Z,20.99
2023-05-03T13:39:23.652Z,21.01
2023-05-03T13:41:50.455Z,20.99
2023-05-03T13:44:16.796Z,20.99
2023-05-03T13:46:43.521Z,20.97
2023-05-03T13:49:09.938Z,21.00
2023-05-03T13:51:36.419Z,21.01
2023-05-03T13:54:03.494Z,21.01
2023-05-03T13:56:29.869Z,21.01
2023-05-03T13:58:57.120Z,21.01
2023-05-03T14:01:24.721Z,21.01
2023-05-03T14:03:51.896Z,21.04
2023-05-03T14:06:18.365Z,21.05
2023-05-03T14:08:44.708Z,21.06
2023-05-03T14:11:14.633Z,21.05
2023-05-03T14:13:55.635Z,21.06
2023-05-03T14:16:35.627Z,21.07
2023-05-03T14:19:06.080Z,21.06
2023-05-03T14:21:32.856Z,21.07
2023-05-03T14:23:59.291Z,21.08
2023-05-03T14:26:26.662Z,21.07
2023-05-03T14:28:53.053Z,21.07
2023-05-03T14:31:19.458Z,21.09
2023-05-03T14:33:45.886Z,21.08
2023-05-03T14:36:12.368Z,21.10
2023-05-03T14:38:38.718Z,21.09
2023-05-03T14:41:05.094Z,21.07
2023-05-03T14:43:31.751Z,21.09
2023-05-03T14:45:58.103Z,21.09
2023-05-03T14:48:24.480Z,21.09
2023-05-03T14:50:51.047Z,21.11
2023-05-03T14:53:17.411Z,21.10
2023-05-03T14:55:43.751Z,21.11
2023-05-03T14:58:10.219Z,21.10
2023-05-03T15:00:42.569Z,21.10
2023-05-03T15:03:11.640Z,21.12
2023-05-03T15:05:48.255Z,21.12
2023-05-03T15:08:15.156Z,21.11
2023-05-03T15:10:41.998Z,21.13
2023-05-03T15:13:09.568Z,21.12
2023-05-03T15:15:36.445Z,21.15
2023-05-03T15:18:02.802Z,21.14
2023-05-03T15:20:29.148Z,21.14
2023-05-03T15:22:55.488Z,21.13
2023-05-03T15:25:21.824Z,21.16
2023-05-03T15:27:48.710Z,21.15
2023-05-03T15:30:17.170Z,21.13
2023-05-03T15:32:43.629Z,21.16
2023-05-03T15:35:10.032Z,21.17
2023-05-03T15:37:37.143Z,21.17
2023-05-03T15:40:04.338Z,21.17
2023-05-03T15:42:30.958Z,21.18
2023-05-03T15:44:57.366Z,21.16
2023-05-03T15:47:24.068Z,21.17
2023-05-03T15:49:50.468Z,21.19
2023-05-03T15:52:16.943Z,21.16
2023-05-03T15:54:43.274Z,21.16
2023-05-03T15:57:09.592Z,21.22
2023-05-03T15:59:36.188Z,21.24
2023-05-03T16:02:03.898Z,21.27
2023-05-03T16:04:30.454Z,21.25
2023-05-03T16:06:57.978Z,21.24
2023-05-03T16:09:24.357Z,21.24
2023-05-03T16:11:50.796Z,21.22
2023-05-03T16:14:17.152Z,21.26
2023-05-03T16:16:45.928Z,21.24
2023-05-03T16:19:13.044Z,20.76
2023-05-03T16:21:39.389Z,20.81
2023-05-03T16:24:05.827Z,20.98
2023-05-03T16:26:34.382Z,21.10
2023-05-03T16:29:00.998Z,21.16
2023-05-03T16:31:30.438Z,21.16
2023-05-03T16:33:56.850Z,21.17
2023-05-03T16:36:23.363Z,21.16
2023-05-03T16:38:49.707Z,21.17
2023-05-03T16:41:16.146Z,21.18
2023-05-03T16:43:42.581Z,21.20
2023-05-03T16:46:08.942Z,21.17
2023-05-03T16:48:35.310Z,21.19
2023-05-03T16:51:02.314Z,21.18
2023-05-03T16:53:28.651Z,21.19
2023-05-03T16:55:55.053Z,21.19
2023-05-03T16:58:21.402Z,21.18
2023-05-03T17:00:47.982Z,21.17
2023-05-03T17:03:14.504Z,21.19
2023-05-03T17:05:40.946Z,21.19
2023-05-03T17:08:10.941Z,21.20
2023-05-03T17:10:39.132Z,21.20
2023-05-03T17:13:06.287Z,21.19
2023-05-03T17:15:32.959Z,21.18
2023-05-03T17:18:00.672Z,21.18
2023-05-03T17:20:28.332Z,21.19
2023-05-03T17:22:54.677Z,21.18
2023-05-03T17:25:21.224Z,21.17
2023-05-03T17:27:48.320Z,21.17
2023-05-03T17:30:14.793Z,21.15
2023-05-03T17:32:41.144Z,21.15
2023-05-03T17:35:07.644Z,21.16
2023-05-03T17:37:34.037Z,21.16
2023-05-03T17:40:00.426Z,21.15
2023-05-03T17:42:27.093Z,20.84
2023-05-03T17:44:54.740Z,20.43
2023-05-03T17:47:21.263Z,20.63
2023-05-03T17:49:47.618Z,20.77
2023-05-03T17:52:13.977Z,20.77
2023-05-03T17:54:40.713Z,20.70
2023-05-03T17:57:07.072Z,20.70
2023-05-03T17:59:33.433Z,20.67
2023-05-03T18:02:00.699Z,20.77
2023-05-03T18:04:27.305Z,20.61
2023-05-03T18:06:53.664Z,20.72
2023-05-03T18:09:20.130Z,20.69
2023-05-03T18:11:47.633Z,20.53
2023-05-03T18:14:14.054Z,20.61
2023-05-03T18:16:41.488Z,20.56
2023-05-03T18:19:07.970Z,20.74
2023-05-03T18:21:35.362Z,20.85
2023-05-03T18:24:02.381Z,20.91
2023-05-03T18:26:28.809Z,20.95
2023-05-03T18:28:55.187Z,20.95
2023-05-03T18:31:21.628Z,20.96
2023-05-03T18:33:48.488Z,20.95
2023-05-03T18:36:15.565Z,20.96
2023-05-03T18:38:42.928Z,20.97
2023-05-03T18:41:10.912Z,20.98
2023-05-03T18:43:38.882Z,20.98
2023-05-03T18:46:05.418Z,20.99
2023-05-03T18:48:32.325Z,20.99
2023-05-03T18:51:02.226Z,21.00
2023-05-03T18:53:30.935Z,20.98
2023-05-03T18:55:57.575Z,20.99
2023-05-03T18:58:23.910Z,21.03
2023-05-03T19:00:51.434Z,21.01
2023-05-03T19:03:17.834Z,20.99
2023-05-03T19:05:44.231Z,21.00
2023-05-03T19:08:10.575Z,20.99
2023-05-03T19:10:36.925Z,20.99
2023-05-03T19:13:03.311Z,20.87
2023-05-03T19:15:29.713Z,20.95
2023-05-03T19:17:56.768Z,20.99
2023-05-03T19:20:23.154Z,20.99
2023-05-03T19:22:49.494Z,20.99
2023-05-03T19:25:15.950Z,20.98
2023-05-03T19:27:42.323Z,20.97
2023-05-03T19:30:09.538Z,20.98
2023-05-03T19:32:38.912Z,20.98
2023-05-03T19:35:08.557Z,20.98
2023-05-03T19:37:35.030Z,20.96
2023-05-03T19:40:01.459Z,20.97
2023-05-03T19:42:27.869Z,20.99
2023-05-03T19:44:54.315Z,21.01
2023-05-03T19:47:20.672Z,21.00
2023-05-03T19:49:47.075Z,20.98
2023-05-03T19:52:13.433Z,20.97
2023-05-03T19:54:39.789Z,20.97
2023-05-03T19:57:06.365Z,20.96
2023-05-03T19:59:32.868Z,20.96
2023-05-03T20:01:59.355Z,20.95
2023-05-03T20:04:25.825Z,20.95
2023-05-03T20:06:52.228Z,20.96
2023-05-03T20:09:21.026Z,20.98
2023-05-03T20:11:47.400Z,20.99
2023-05-03T20:14:13.744Z,20.98
2023-05-03T20:16:40.375Z,20.98
2023-05-03T20:19:06.841Z,20.97
2023-05-03T20:21:33.226Z,20.97
2023-05-03T20:23:59.579Z,20.97
2023-05-03T20:26:25.932Z,20.97
2023-05-03T20:28:52.297Z,20.94
2023-05-03T20:31:18.714Z,20.93
2023-05-03T20:33:45.084Z,20.93
2023-05-03T20:36:12.649Z,20.93
2023-05-03T20:38:39.058Z,20.93
2023-05-03T20:41:05.521Z,20.94
2023-05-03T20:43:31.869Z,20.94
2023-05-03T20:45:58.240Z,20.93
2023-05-03T20:48:24.671Z,20.93
2023-05-03T20:50:51.145Z,20.94
2023-05-03T20:53:17.536Z,20.94
2023-05-03T20:55:43.888Z,20.94
2023-05-03T20:58:12.118Z,20.92
2023-05-03T21:00:38.575Z,20.92
2023-05-03T21:03:05.059Z,20.92
2023-05-03T21:05:31.573Z,20.92
2023-05-03T21:07:57.936Z,20.91
2023-05-03T21:10:24.265Z,20.92
2023-05-03T21:12:50.615Z,20.91
2023-05-03T21:15:17.006Z,20.91
2023-05-03T21:17:43.484Z,20.90
2023-05-03T21:20:10.805Z,20.90
2023-05-03T21:22:37.614Z,20.89
2023-05-03T21:25:04.250Z,20.89
2023-05-03T21:27:30.589Z,20.90
2023-05-03T21:29:56.948Z,20.88
2023-05-03T21:32:23.463Z,20.88
2023-05-03T21:34:49.820Z,20.88
2023-05-03T21:37:16.838Z,20.87
2023-05-03T21:39:50.507Z,20.88
2023-05-03T21:42:24.300Z,20.86
2023-05-03T21:44:50.712Z,20.86
2023-05-03T21:47:17.069Z,20.86
2023-05-03T21:49:43.802Z,20.86
2023-05-03T21:52:10.250Z,20.86
2023-05-03T21:54:36.721Z,20.85
2023-05-03T21:57:03.081Z,20.84
2023-05-03T21:59:29.433Z,20.83
2023-05-03T22:01:55.836Z,20.84
2023-05-03T22:04:22.455Z,20.85
2023-05-03T22:06:48.816Z,20.86
2023-05-03T22:09:15.234Z,20.86
2023-05-03T22:11:41.588Z,20.86
2023-05-03T22:14:08.715Z,20.84
2023-05-03T22:16:38.917Z,20.84
2023-05-03T22:19:05.425Z,20.83
2023-05-03T22:21:31.968Z,20.83
2023-05-03T22:23:58.448Z,20.83
2023-05-03T22:26:25.061Z,20.81
2023-05-03T22:28:51.941Z,20.81
2023-05-03T22:31:18.328Z,20.81
2023-05-03T22:33:45.051Z,20.79
2023-05-03T22:36:12.384Z,20.80
2023-05-03T22:38:39.593Z,20.79
2023-05-03T22:41:07.705Z,20.78
2023-05-03T22:43:34.057Z,20.78
2023-05-03T22:46:00.498Z,20.78
2023-05-03T22:48:29.774Z,20.78
2023-05-03T22:50:56.249Z,20.77
2023-05-03T22:53:22.586Z,20.76
2023-05-03T22:55:58.650Z,20.75
2023-05-03T22:58:25.646Z,20.75
2023-05-03T23:00:52.885Z,20.75
2023-05-03T23:03:19.607Z,20.75
2023-05-03T23:05:47.143Z,20.74
2023-05-03T23:08:14.036Z,20.73
2023-05-03T23:10:40.744Z,20.73
2023-05-03T23:13:07.443Z,20.74
2023-05-03T23:15:33.952Z,20.74
2023-05-03T23:18:00.393Z,20.74
2023-05-03T23:20:26.752Z,20.72
2023-05-03T23:22:53.177Z,20.73
2023-05-03T23:25:19.871Z,20.72
2023-05-03T23:27:46.276Z,20.71
2023-05-03T23:30:13.215Z,20.71
2023-05-03T23:32:39.966Z,20.70
2023-05-03T23:35:07.435Z,20.66
2023-05-03T23:37:33.843Z,20.66
2023-05-03T23:40:00.174Z,20.65
2023-05-03T23:42:26.509Z,20.65
2023-05-03T23:44:55.654Z,20.63
2023-05-03T23:47:22.413Z,20.64
2023-05-03T23:49:48.765Z,20.63
2023-05-03T23:52:16.894Z,20.64
2023-05-03T23:54:43.274Z,20.63
2023-05-03T23:57:09.640Z,20.63
2023-05-03T23:59:35.982Z,20.62
